createdAt,value
2018-06-19T00:01:06.541Z,32.20
2018-06-19T00:02:06.609Z,32.39
2018-06-19T00:03:59.604Z,31.82
2018-06-19T00:04:59.659Z,31.72
2018-06-19T00:06:52.655Z,31.92
2018-06-19T00:07:52.711Z,31.92
2018-06-19T00:09:45.704Z,31.82
2018-06-19T00:10:45.767Z,31.43
2018-06-19T00:12:38.765Z,31.24
2018-06-19T00:13:38.821Z,30.76
2018-06-19T00:15:31.813Z,30.86
2018-06-19T00:16:31.876Z,31.15
2018-06-19T00:18:24.877Z,31.82
2018-06-19T00:19:24.928Z,31.72
2018-06-19T00:21:17.919Z,32.29
2018-06-19T00:22:17.982Z,32.39
2018-06-19T00:24:10.979Z,32.10
2018-06-19T00:25:11.035Z,32.20
2018-06-19T00:27:04.033Z,32.41
2018-06-19T00:28:04.087Z,32.20
2018-06-19T00:29:57.077Z,33.08
2018-06-19T00:30:57.139Z,33.27
2018-06-19T00:32:50.140Z,33.84
2018-06-19T00:33:50.194Z,33.47
2018-06-19T00:35:43.183Z,34.04
2018-06-19T00:36:43.244Z,34.04
2018-06-19T00:38:36.244Z,33.75
2018-06-19T00:39:36.296Z,33.94
2018-06-19T00:41:29.285Z,33.65
2018-06-19T00:42:29.349Z,33.94
2018-06-19T00:44:22.856Z,33.94
2018-06-19T00:45:22.912Z,33.37
2018-06-19T00:47:15.907Z,33.47
2018-06-19T00:48:15.965Z,33.17
2018-06-19T00:50:08.960Z,33.08
2018-06-19T00:51:09.021Z,32.98
2018-06-19T00:53:02.018Z,32.89
2018-06-19T00:54:02.082Z,32.70
2018-06-19T00:55:55.071Z,31.84
2018-06-19T00:56:55.135Z,32.70
2018-06-19T00:58:48.133Z,31.74
2018-06-19T00:59:48.187Z,32.12
2018-06-19T01:01:41.184Z,31.84
2018-06-19T01:02:41.250Z,31.93
2018-06-19T01:04:34.250Z,31.84
2018-06-19T01:05:34.308Z,31.26
2018-06-19T01:07:27.305Z,31.64
2018-06-19T01:08:27.362Z,31.16
2018-06-19T01:10:20.352Z,30.68
2018-06-19T01:11:20.420Z,30.87
2018-06-19T01:13:13.414Z,30.58
2018-06-19T01:14:13.471Z,31.07
2018-06-19T01:16:06.461Z,30.58
2018-06-19T01:17:06.525Z,31.26
2018-06-19T01:18:59.518Z,30.78
2018-06-19T01:19:59.574Z,30.97
2018-06-19T01:21:52.567Z,30.68
2018-06-19T01:22:52.629Z,31.16
2018-06-19T01:24:45.629Z,30.87
2018-06-19T01:25:45.685Z,30.97
2018-06-19T01:27:38.682Z,31.07
2018-06-19T01:28:38.774Z,30.97
2018-06-19T01:30:31.726Z,30.78
2018-06-19T01:31:31.788Z,30.58
2018-06-19T01:33:24.788Z,30.78
2018-06-19T01:34:24.845Z,30.68
2018-06-19T01:36:17.837Z,30.30
2018-06-19T01:37:17.900Z,30.68
2018-06-19T01:39:10.895Z,30.40
2018-06-19T01:40:10.952Z,29.82
2018-06-19T01:42:03.942Z,30.68
2018-06-19T01:43:04.005Z,30.78
2018-06-19T01:44:57.000Z,30.68
2018-06-19T01:45:57.062Z,30.87
2018-06-19T01:47:50.048Z,30.97
2018-06-19T01:48:50.107Z,31.07
2018-06-19T01:50:43.104Z,31.16
2018-06-19T01:51:43.159Z,31.07
2018-06-19T01:53:36.159Z,32.12
2018-06-19T01:54:36.212Z,31.64
2018-06-19T01:56:29.201Z,31.93
2018-06-19T01:57:29.265Z,31.64
2018-06-19T01:59:22.260Z,32.21
2018-06-19T02:00:22.316Z,32.21
2018-06-19T02:02:15.306Z,32.12
2018-06-19T02:03:15.368Z,32.60
2018-06-19T02:05:08.366Z,32.79
2018-06-19T02:06:08.419Z,32.60
2018-06-19T02:08:01.409Z,32.41
2018-06-19T02:09:01.471Z,32.51
2018-06-19T02:10:54.471Z,33.56
2018-06-19T02:11:54.524Z,32.79
2018-06-19T02:13:47.513Z,32.70
2018-06-19T02:14:47.580Z,33.27
2018-06-19T02:16:40.580Z,32.89
2018-06-19T02:17:40.646Z,33.75
2018-06-19T02:19:33.633Z,32.70
2018-06-19T02:20:33.690Z,32.98
2018-06-19T02:22:26.678Z,33.27
2018-06-19T02:23:26.741Z,33.56
2018-06-19T02:25:19.739Z,33.47
2018-06-19T02:26:19.796Z,33.27
2018-06-19T02:28:12.787Z,34.14
2018-06-19T02:29:12.851Z,34.04
2018-06-19T02:31:05.848Z,34.42
2018-06-19T02:32:05.905Z,34.14
2018-06-19T02:33:58.902Z,34.14
2018-06-19T02:34:58.967Z,34.52
2018-06-19T02:36:51.959Z,34.14
2018-06-19T02:37:52.014Z,34.14
2018-06-19T02:39:45.019Z,34.23
2018-06-19T02:40:45.074Z,34.14
2018-06-19T02:42:38.079Z,34.42
2018-06-19T02:43:38.132Z,35.28
2018-06-19T02:45:31.126Z,34.71
2018-06-19T02:46:31.180Z,35.19
2018-06-19T02:48:24.168Z,34.71
2018-06-19T02:49:24.231Z,35.86
2018-06-19T02:51:17.234Z,35.57
2018-06-19T02:52:17.289Z,35.57
2018-06-19T02:54:10.284Z,35.28
2018-06-19T02:55:10.346Z,35.67
2018-06-19T02:57:03.348Z,35.96
2018-06-19T02:58:03.406Z,35.86
2018-06-19T02:59:56.398Z,35.86
2018-06-19T03:00:56.463Z,36.05
2018-06-19T03:02:49.457Z,35.86
2018-06-19T03:03:49.513Z,36.72
2018-06-19T03:05:42.510Z,35.19
2018-06-19T03:06:42.565Z,35.96
2018-06-19T03:08:35.561Z,36.53
2018-06-19T03:09:35.622Z,35.86
2018-06-19T03:11:28.617Z,35.86
2018-06-19T03:12:28.673Z,35.57
2018-06-19T03:14:21.662Z,35.86
2018-06-19T03:15:21.729Z,35.67
2018-06-19T03:17:14.732Z,35.86
2018-06-19T03:18:14.781Z,35.00
2018-06-19T03:20:07.768Z,34.33
2018-06-19T03:21:07.834Z,35.00
2018-06-19T03:23:00.831Z,34.61
2018-06-19T03:24:00.887Z,35.10
2018-06-19T03:25:53.881Z,35.38
2018-06-19T03:26:53.942Z,35.48
2018-06-19T03:28:46.926Z,34.33
2018-06-19T03:29:46.991Z,34.71
2018-06-19T03:31:39.989Z,35.28
2018-06-19T03:32:40.048Z,35.10
2018-06-19T03:34:33.032Z,34.42
2018-06-19T03:35:33.095Z,34.71
2018-06-19T03:37:26.092Z,34.71
2018-06-19T03:38:26.148Z,35.28
2018-06-19T03:40:19.137Z,35.10
2018-06-19T03:41:19.200Z,34.33
2018-06-19T03:43:12.195Z,35.10
2018-06-19T03:44:12.252Z,34.33
2018-06-19T03:46:05.250Z,34.71
2018-06-19T03:47:05.309Z,34.81
2018-06-19T03:48:58.315Z,34.42
2018-06-19T03:49:58.368Z,35.19
2018-06-19T03:51:51.366Z,34.81
2018-06-19T03:52:51.422Z,34.61
2018-06-19T03:54:44.413Z,32.70
2018-06-19T03:55:44.477Z,35.00
2018-06-19T03:57:37.982Z,34.71
2018-06-19T03:58:38.039Z,34.90
2018-06-19T04:00:31.026Z,35.28
2018-06-19T04:01:31.089Z,33.65
2018-06-19T04:03:24.086Z,33.84
2018-06-19T04:04:24.145Z,34.14
2018-06-19T04:06:17.140Z,33.94
2018-06-19T04:07:17.201Z,34.52
2018-06-19T04:09:10.204Z,33.84
2018-06-19T04:10:10.259Z,34.14
2018-06-19T04:12:03.259Z,34.23
2018-06-19T04:13:03.315Z,34.14
2018-06-19T04:14:56.313Z,34.61
2018-06-19T04:15:56.375Z,34.61
2018-06-19T04:17:49.376Z,34.42
2018-06-19T04:18:49.426Z,34.04
2018-06-19T04:20:42.416Z,34.14
2018-06-19T04:21:42.475Z,33.84
2018-06-19T04:23:35.477Z,34.63
2018-06-19T04:24:35.533Z,34.81
2018-06-19T04:26:28.524Z,34.61
2018-06-19T04:27:28.591Z,34.42
2018-06-19T04:29:21.588Z,34.14
2018-06-19T04:30:21.645Z,33.37
2018-06-19T04:32:14.647Z,34.14
2018-06-19T04:33:14.743Z,34.34
2018-06-19T04:35:07.694Z,33.96
2018-06-19T04:36:07.751Z,34.81
2018-06-19T04:38:00.749Z,33.65
2018-06-19T04:39:00.944Z,34.15
2018-06-19T04:40:53.795Z,34.23
2018-06-19T04:41:53.857Z,32.90
2018-06-19T04:43:46.852Z,33.86
2018-06-19T04:44:46.908Z,34.63
2018-06-19T04:46:39.901Z,34.25
2018-06-19T04:47:39.961Z,35.02
2018-06-19T04:49:32.965Z,35.21
2018-06-19T04:50:33.015Z,34.82
2018-06-19T04:52:26.005Z,34.44
2018-06-19T04:53:26.067Z,34.44
2018-06-19T04:55:19.065Z,34.63
2018-06-19T04:56:19.125Z,34.63
2018-06-19T04:58:12.120Z,34.04
2018-06-19T04:59:12.173Z,33.86
2018-06-19T05:01:05.164Z,33.58
2018-06-19T05:02:05.222Z,33.19
2018-06-19T05:03:58.218Z,34.15
2018-06-19T05:04:58.277Z,33.67
2018-06-19T05:06:51.264Z,32.71
2018-06-19T05:07:51.326Z,33.09
2018-06-19T05:09:44.325Z,33.29
2018-06-19T05:10:44.379Z,33.58
2018-06-19T05:12:37.372Z,34.34
2018-06-19T05:13:37.438Z,33.96
2018-06-19T05:15:30.434Z,34.25
2018-06-19T05:16:30.489Z,33.58
2018-06-19T05:18:23.481Z,34.06
2018-06-19T05:19:23.545Z,33.86
2018-06-19T05:21:16.550Z,33.48
2018-06-19T05:22:16.609Z,33.58
2018-06-19T05:24:09.605Z,33.48
2018-06-19T05:25:09.659Z,33.86
2018-06-19T05:27:02.656Z,34.06
2018-06-19T05:28:02.724Z,32.71
2018-06-19T05:29:55.719Z,34.25
2018-06-19T05:30:55.775Z,33.96
2018-06-19T05:32:48.771Z,33.29
2018-06-19T05:33:48.841Z,33.09
2018-06-19T05:35:41.834Z,32.90
2018-06-19T05:36:41.889Z,33.58
2018-06-19T05:38:34.880Z,33.19
2018-06-19T05:39:34.945Z,33.19
2018-06-19T05:41:27.949Z,31.85
2018-06-19T05:42:28.006Z,32.90
2018-06-19T05:44:21.002Z,32.52
2018-06-19T05:45:21.065Z,33.09
2018-06-19T05:47:14.069Z,31.56
2018-06-19T05:48:14.125Z,32.62
2018-06-19T05:50:07.124Z,32.42
2018-06-19T05:51:07.178Z,31.27
2018-06-19T05:53:00.177Z,31.75
2018-06-19T05:54:00.237Z,30.60
2018-06-19T05:55:53.240Z,31.37
2018-06-19T05:56:53.294Z,32.52
2018-06-19T05:58:46.286Z,32.81
2018-06-19T05:59:46.350Z,31.85
2018-06-19T06:01:39.352Z,31.18
2018-06-19T06:02:39.410Z,31.66
2018-06-19T06:04:32.418Z,31.18
2018-06-19T06:05:32.502Z,31.75
2018-06-19T06:07:25.471Z,32.14
2018-06-19T06:08:25.527Z,31.10
2018-06-19T06:10:18.521Z,30.04
2018-06-19T06:11:18.631Z,32.15
2018-06-19T06:13:11.578Z,31.87
2018-06-19T06:14:11.640Z,31.87
2018-06-19T06:16:04.638Z,31.67
2018-06-19T06:17:04.691Z,32.15
2018-06-19T06:18:57.693Z,31.87
2018-06-19T06:19:57.754Z,32.06
2018-06-19T06:21:50.751Z,31.96
2018-06-19T06:22:50.808Z,31.67
2018-06-19T06:24:43.799Z,31.67
2018-06-19T06:25:43.863Z,31.96
2018-06-19T06:27:37.371Z,31.96
2018-06-19T06:28:37.422Z,32.25
2018-06-19T06:30:30.429Z,32.92
2018-06-19T06:31:30.482Z,31.20
2018-06-19T06:33:23.469Z,32.84
2018-06-19T06:34:23.528Z,31.21
2018-06-19T06:36:16.532Z,33.13
2018-06-19T06:37:16.590Z,34.19
2018-06-19T06:39:09.584Z,35.05
2018-06-19T06:40:09.648Z,35.24
2018-06-19T06:42:02.649Z,33.42
2018-06-19T06:43:02.707Z,33.32
2018-06-19T06:44:55.925Z,33.13
2018-06-19T06:45:55.762Z,32.93
2018-06-19T06:47:48.764Z,33.51
2018-06-19T06:48:48.835Z,33.32
2018-06-19T06:50:41.812Z,32.75
2018-06-19T06:51:41.875Z,33.99
2018-06-19T06:53:34.878Z,33.70
2018-06-19T06:54:34.938Z,34.86
2018-06-19T06:56:27.936Z,35.36
2018-06-19T06:57:27.990Z,35.55
2018-06-19T06:59:20.982Z,34.20
2018-06-19T07:00:21.047Z,35.16
2018-06-19T07:02:14.049Z,36.13
2018-06-19T07:03:14.107Z,35.38
2018-06-19T07:05:07.100Z,36.03
2018-06-19T07:06:07.164Z,35.83
2018-06-19T07:08:00.164Z,36.72
2018-06-19T07:09:00.224Z,35.36
2018-06-19T07:10:53.217Z,36.91
2018-06-19T07:11:53.276Z,37.39
2018-06-19T07:13:46.275Z,37.68
2018-06-19T07:14:46.324Z,38.74
2018-06-19T07:16:39.332Z,38.45
2018-06-19T07:17:39.395Z,39.04
2018-06-19T07:19:32.446Z,37.68
2018-06-19T07:20:32.455Z,40.47
2018-06-19T07:22:25.510Z,39.03
2018-06-19T07:23:25.508Z,38.64
2018-06-19T07:25:18.506Z,38.07
2018-06-19T07:26:18.569Z,38.35
2018-06-19T07:28:12.078Z,39.41
2018-06-19T07:29:12.131Z,38.93
2018-06-19T07:31:05.131Z,37.59
2018-06-19T07:32:05.229Z,38.07
2018-06-19T07:33:58.198Z,38.54
2018-06-19T07:34:58.247Z,35.38
2018-06-19T07:36:51.311Z,37.01
2018-06-19T07:37:51.321Z,37.10
2018-06-19T07:39:44.312Z,39.89
2018-06-19T07:40:44.366Z,39.79
2018-06-19T07:42:37.373Z,40.20
2018-06-19T07:43:37.428Z,39.62
2018-06-19T07:45:30.415Z,38.74
2018-06-19T07:46:30.480Z,39.43
2018-06-19T07:48:23.482Z,39.04
2018-06-19T07:49:23.545Z,38.37
2018-06-19T07:51:16.531Z,40.58
2018-06-19T07:52:16.598Z,39.72
2018-06-19T07:54:09.596Z,41.45
2018-06-19T07:55:09.653Z,41.76
2018-06-19T07:57:02.645Z,44.84
2018-06-19T07:58:02.713Z,44.93
2018-06-19T07:59:55.711Z,43.78
2018-06-19T08:00:55.773Z,44.26
2018-06-19T08:02:48.761Z,42.72
2018-06-19T08:03:48.827Z,44.93
2018-06-19T08:05:41.826Z,41.38
2018-06-19T08:06:41.885Z,41.66
2018-06-19T08:08:34.889Z,43.59
2018-06-19T08:09:34.944Z,43.30
2018-06-19T08:11:27.940Z,43.03
2018-06-19T08:12:28.002Z,45.05
2018-06-19T08:14:21.009Z,45.73
2018-06-19T08:15:21.068Z,46.50
2018-06-19T08:17:14.064Z,46.88
2018-06-19T08:18:14.126Z,44.57
2018-06-19T08:20:07.129Z,43.11
2018-06-19T08:21:07.189Z,41.86
2018-06-19T08:23:00.184Z,40.80
2018-06-19T08:24:00.249Z,41.18
2018-06-19T08:25:53.252Z,42.33
2018-06-19T08:26:53.308Z,41.38
2018-06-19T08:28:46.304Z,41.76
2018-06-19T08:29:46.366Z,41.86
2018-06-19T08:31:39.367Z,41.66
2018-06-19T08:32:39.429Z,42.14
2018-06-19T08:34:32.430Z,40.22
2018-06-19T08:35:32.489Z,43.40
2018-06-19T08:37:25.480Z,41.95
2018-06-19T08:38:25.545Z,41.86
2018-06-19T08:40:18.549Z,42.72
2018-06-19T08:41:18.606Z,40.89
2018-06-19T08:43:11.608Z,41.68
2018-06-19T08:44:11.665Z,43.90
2018-06-19T08:46:04.670Z,45.94
2018-06-19T08:47:04.731Z,47.65
2018-06-19T08:48:57.731Z,45.53
2018-06-19T08:49:57.798Z,45.36
2018-06-19T08:51:50.792Z,43.65
2018-06-19T08:52:50.849Z,46.42
2018-06-19T08:54:43.850Z,48.86
2018-06-19T08:55:43.910Z,45.00
2018-06-19T08:57:36.910Z,47.89
2018-06-19T08:58:36.968Z,49.15
2018-06-19T09:00:29.973Z,47.12
2018-06-19T09:01:30.030Z,44.04
2018-06-19T09:03:23.030Z,48.47
2018-06-19T09:04:23.093Z,50.40
2018-06-19T09:06:16.099Z,49.07
2018-06-19T09:07:16.153Z,46.45
2018-06-19T09:09:09.154Z,48.38
2018-06-19T09:10:09.220Z,46.64
2018-06-19T09:12:02.216Z,43.73
2018-06-19T09:13:02.282Z,46.42
2018-06-19T09:14:55.278Z,46.81
2018-06-19T09:15:55.338Z,42.38
2018-06-19T09:17:48.341Z,48.18
2018-06-19T09:18:48.406Z,47.12
2018-06-19T09:20:41.416Z,47.03
2018-06-19T09:21:41.472Z,47.70
2018-06-19T09:23:34.460Z,50.01
2018-06-19T09:24:34.526Z,47.89
2018-06-19T09:26:27.529Z,47.12
2018-06-19T09:27:27.591Z,47.41
2018-06-19T09:29:20.581Z,44.23
2018-06-19T09:30:20.648Z,45.77
2018-06-19T09:32:13.652Z,46.93
2018-06-19T09:33:13.708Z,49.91
2018-06-19T09:35:06.720Z,47.14
2018-06-19T09:36:06.968Z,46.86
2018-06-19T09:37:59.785Z,46.47
2018-06-19T09:38:59.844Z,48.08
2018-06-19T09:40:52.842Z,46.64
2018-06-19T09:41:52.908Z,47.14
2018-06-19T09:43:45.942Z,47.03
2018-06-19T09:44:45.971Z,46.83
2018-06-19T09:46:38.988Z,44.32
2018-06-19T09:47:39.036Z,45.00
2018-06-19T09:49:32.027Z,45.00
2018-06-19T09:50:32.090Z,45.68
2018-06-19T09:52:25.096Z,46.45
2018-06-19T09:53:25.152Z,41.82
2018-06-19T09:55:18.149Z,42.49
2018-06-19T09:56:18.219Z,42.40
2018-06-19T09:58:11.219Z,42.21
2018-06-19T09:59:11.352Z,42.79
2018-06-19T10:01:04.275Z,40.94
2018-06-19T10:02:04.338Z,40.94
2018-06-19T10:03:57.343Z,38.24
2018-06-19T10:04:57.403Z,39.66
2018-06-19T10:06:50.399Z,38.12
2018-06-19T10:07:50.462Z,38.79
2018-06-19T10:09:43.467Z,36.87
2018-06-19T10:10:43.526Z,35.14
2018-06-19T10:12:36.531Z,37.76
2018-06-19T10:13:36.586Z,38.31
2018-06-19T10:15:29.584Z,37.45
2018-06-19T10:16:29.647Z,37.26
2018-06-19T10:18:22.651Z,36.69
2018-06-19T10:19:22.721Z,37.27
2018-06-19T10:21:15.712Z,36.60
2018-06-19T10:22:15.781Z,38.04
2018-06-19T10:24:08.779Z,36.99
2018-06-19T10:25:08.835Z,35.83
2018-06-19T10:27:01.843Z,39.39
2018-06-19T10:28:01.900Z,38.24
2018-06-19T10:29:54.912Z,37.76
2018-06-19T10:30:54.964Z,38.53
2018-06-19T10:32:47.981Z,36.99
2018-06-19T10:33:48.029Z,37.37
2018-06-19T10:35:41.037Z,37.95
2018-06-19T10:36:41.088Z,40.57
2018-06-19T10:38:34.102Z,39.61
2018-06-19T10:39:34.146Z,40.07
2018-06-19T10:41:27.148Z,38.24
2018-06-19T10:42:27.233Z,40.07
2018-06-19T10:44:20.221Z,38.14
2018-06-19T10:45:20.272Z,38.24
2018-06-19T10:47:13.292Z,38.72
2018-06-19T10:48:13.349Z,38.33
2018-06-19T10:50:06.342Z,39.22
2018-06-19T10:51:06.403Z,38.16
2018-06-19T10:52:59.422Z,38.64
2018-06-19T10:53:59.486Z,41.92
2018-06-19T10:55:52.468Z,42.52
2018-06-19T10:56:52.526Z,43.38
2018-06-19T10:58:45.837Z,42.03
2018-06-19T10:59:45.585Z,41.48
2018-06-19T11:01:38.592Z,44.27
2018-06-19T11:02:38.645Z,43.98
2018-06-19T11:04:31.661Z,44.35
2018-06-19T11:05:31.709Z,42.42
2018-06-19T11:07:24.704Z,42.13
2018-06-19T11:08:24.784Z,42.80
2018-06-19T11:10:17.791Z,41.63
2018-06-19T11:11:17.830Z,39.22
2018-06-19T11:13:10.836Z,39.41
2018-06-19T11:14:10.970Z,38.64
2018-06-19T11:16:03.925Z,37.01
2018-06-19T11:17:03.971Z,39.61
2018-06-19T11:18:56.965Z,41.36
2018-06-19T11:19:57.071Z,42.32
2018-06-19T11:21:50.054Z,46.49
2018-06-19T11:22:50.098Z,46.78
2018-06-19T11:24:43.096Z,48.74
2018-06-19T11:25:43.174Z,46.23
2018-06-19T11:27:36.163Z,47.38
2018-06-19T11:28:36.216Z,48.64
2018-06-19T11:30:29.223Z,48.76
2018-06-19T11:31:29.284Z,51.17
2018-06-19T11:33:22.277Z,51.37
2018-06-19T11:34:22.348Z,51.07
2018-06-19T11:36:15.347Z,49.15
2018-06-19T11:37:15.419Z,50.50
2018-06-19T11:39:08.411Z,50.40
2018-06-19T11:40:08.470Z,51.20
2018-06-19T11:42:01.499Z,51.29
2018-06-19T11:43:01.547Z,55.55
2018-06-19T11:44:54.545Z,53.61
2018-06-19T11:45:54.610Z,56.22
2018-06-19T11:47:47.618Z,53.42
2018-06-19T11:48:47.680Z,54.87
2018-06-19T11:50:40.690Z,50.23
2018-06-19T11:51:40.803Z,54.68
2018-06-19T11:53:33.755Z,55.47
2018-06-19T11:54:33.934Z,55.38
2018-06-19T11:56:26.821Z,56.54
2018-06-19T11:57:26.922Z,53.13
2018-06-19T11:59:19.886Z,53.03
2018-06-19T12:00:19.954Z,53.52
2018-06-19T12:02:12.954Z,53.30
2018-06-19T12:03:13.017Z,54.55
2018-06-19T12:05:06.019Z,50.69
2018-06-19T12:06:06.079Z,53.97
2018-06-19T12:07:59.083Z,50.65
2018-06-19T12:08:59.146Z,51.25
2018-06-19T12:10:52.162Z,60.24
2018-06-19T12:11:52.211Z,58.40
2018-06-19T12:13:45.216Z,62.24
2018-06-19T12:14:45.282Z,57.70
2018-06-19T12:16:38.280Z,56.61
2018-06-19T12:17:38.339Z,57.67
2018-06-19T12:19:31.345Z,55.35
2018-06-19T12:20:31.408Z,54.55
2018-06-19T12:22:24.412Z,53.11
2018-06-19T12:23:24.475Z,51.29
2018-06-19T12:25:17.473Z,52.67
2018-06-19T12:26:17.542Z,58.60
2018-06-19T12:28:11.052Z,62.08
2018-06-19T12:29:11.114Z,61.05
2018-06-19T12:31:04.113Z,64.04
2018-06-19T12:32:04.179Z,62.98
2018-06-19T12:33:57.185Z,62.18
2018-06-19T12:34:57.244Z,64.01
2018-06-19T12:36:50.252Z,62.18
2018-06-19T12:37:50.309Z,61.95
2018-06-19T12:39:43.311Z,61.50
2018-06-19T12:40:43.373Z,61.08
2018-06-19T12:42:36.384Z,62.53
2018-06-19T12:43:36.441Z,61.05
2018-06-19T12:45:29.445Z,59.92
2018-06-19T12:46:29.507Z,62.82
2018-06-19T12:48:22.512Z,59.95
2018-06-19T12:49:22.573Z,60.14
2018-06-19T12:51:16.071Z,63.76
2018-06-19T12:52:16.138Z,64.24
2018-06-19T12:54:09.141Z,62.88
2018-06-19T12:55:09.456Z,65.88
2018-06-19T12:57:02.209Z,69.11
2018-06-19T12:58:02.272Z,69.01
2018-06-19T12:59:55.782Z,69.63
2018-06-19T13:00:55.844Z,71.37
2018-06-19T13:02:48.845Z,67.69
2018-06-19T13:03:48.901Z,71.28
2018-06-19T13:05:41.901Z,69.76
2018-06-19T13:06:41.969Z,68.47
2018-06-19T13:08:34.978Z,69.31
2018-06-19T13:09:35.039Z,70.37
2018-06-19T13:11:28.041Z,68.33
2018-06-19T13:12:28.106Z,69.89
2018-06-19T13:14:21.124Z,69.95
2018-06-19T13:15:21.180Z,68.01
2018-06-19T13:17:14.182Z,68.21
2018-06-19T13:18:14.246Z,67.43
2018-06-19T13:20:07.251Z,67.37
2018-06-19T13:21:07.315Z,70.27
2018-06-19T13:23:00.338Z,70.56
2018-06-19T13:24:00.388Z,70.56
2018-06-19T13:25:53.392Z,70.66
2018-06-19T13:26:53.456Z,71.72
2018-06-19T13:28:46.977Z,70.50
2018-06-19T13:29:47.031Z,70.27
2018-06-19T13:31:40.034Z,71.86
2018-06-19T13:32:40.099Z,71.37
2018-06-19T13:34:33.108Z,70.56
2018-06-19T13:35:33.171Z,68.33
2018-06-19T13:37:26.167Z,69.40
2018-06-19T13:38:26.235Z,71.34
2018-06-19T13:40:19.266Z,70.89
2018-06-19T13:41:19.305Z,72.77
2018-06-19T13:43:12.314Z,72.15
2018-06-19T13:44:12.375Z,71.76
2018-06-19T13:46:05.373Z,72.86
2018-06-19T13:47:05.442Z,73.54
2018-06-19T13:48:58.456Z,74.99
2018-06-19T13:49:58.511Z,74.41
2018-06-19T13:51:51.517Z,72.77
2018-06-19T13:52:51.586Z,72.67
2018-06-19T13:54:44.589Z,73.35
2018-06-19T13:55:44.652Z,72.77
2018-06-19T13:57:37.656Z,74.66
2018-06-19T13:58:37.718Z,73.35
2018-06-19T14:00:30.727Z,70.25
2018-06-19T14:01:30.788Z,72.86
2018-06-19T14:03:23.793Z,72.83
2018-06-19T14:04:23.858Z,69.82
2018-06-19T14:06:16.886Z,71.82
2018-06-19T14:07:16.947Z,68.98
2018-06-19T14:09:09.945Z,67.82
2018-06-19T14:10:09.997Z,68.30
2018-06-19T14:12:02.995Z,66.72
2018-06-19T14:13:03.066Z,67.56
2018-06-19T14:14:56.094Z,65.53
2018-06-19T14:15:56.147Z,65.34
2018-06-19T14:17:49.191Z,65.82
2018-06-19T14:18:49.219Z,63.95
2018-06-19T14:20:42.254Z,62.02
2018-06-19T14:21:42.312Z,59.51
2018-06-19T14:23:35.311Z,56.51
2018-06-19T14:24:35.380Z,54.75
2018-06-19T14:26:28.378Z,57.06
2018-06-19T14:27:28.438Z,55.23
2018-06-19T14:29:21.442Z,56.39
2018-06-19T14:30:21.505Z,56.48
2018-06-19T14:32:14.512Z,52.91
2018-06-19T14:33:14.571Z,57.64
2018-06-19T14:35:07.578Z,55.42
2018-06-19T14:36:07.636Z,56.68
2018-06-19T14:38:00.630Z,54.55
2018-06-19T14:39:00.752Z,56.77
2018-06-19T14:40:53.706Z,58.03
2018-06-19T14:41:53.768Z,55.26
2018-06-19T14:43:46.764Z,59.12
2018-06-19T14:44:46.831Z,57.19
2018-06-19T14:46:39.872Z,57.87
2018-06-19T14:47:39.895Z,58.90
2018-06-19T14:49:32.891Z,56.58
2018-06-19T14:50:32.958Z,56.39
2018-06-19T14:52:25.973Z,56.20
2018-06-19T14:53:26.030Z,57.93
2018-06-19T14:55:19.037Z,60.96
2018-06-19T14:56:19.090Z,60.57
2018-06-19T14:58:12.094Z,58.64
2018-06-19T14:59:12.165Z,59.80
2018-06-19T15:01:05.167Z,60.28
2018-06-19T15:02:05.228Z,58.64
2018-06-19T15:03:58.224Z,60.18
2018-06-19T15:04:58.289Z,60.67
2018-06-19T15:06:51.294Z,59.60
2018-06-19T15:07:51.353Z,60.86
2018-06-19T15:09:44.353Z,60.06
2018-06-19T15:10:44.417Z,60.83
2018-06-19T15:12:37.422Z,58.32
2018-06-19T15:13:37.482Z,62.18
2018-06-19T15:15:30.482Z,59.80
2018-06-19T15:16:30.550Z,60.28
2018-06-19T15:18:23.597Z,61.25
2018-06-19T15:19:23.610Z,61.34
2018-06-19T15:21:16.616Z,62.60
2018-06-19T15:22:16.676Z,61.83
2018-06-19T15:24:09.701Z,60.60
2018-06-19T15:25:09.865Z,62.44
2018-06-19T15:27:02.746Z,65.05
2018-06-19T15:28:02.805Z,64.66
2018-06-19T15:29:55.809Z,62.18
2018-06-19T15:30:55.876Z,65.75
2018-06-19T15:32:48.883Z,62.56
2018-06-19T15:33:48.946Z,67.11
2018-06-19T15:35:41.944Z,65.75
2018-06-19T15:36:42.010Z,64.21
2018-06-19T15:38:35.019Z,62.63
2018-06-19T15:39:35.084Z,64.47
2018-06-19T15:41:28.098Z,62.79
2018-06-19T15:42:28.142Z,59.60
2018-06-19T15:44:21.139Z,60.57
2018-06-19T15:45:21.205Z,59.19
2018-06-19T15:47:14.214Z,59.28
2018-06-19T15:48:14.273Z,58.22
2018-06-19T15:50:07.274Z,55.23
2018-06-19T15:51:07.347Z,53.49
2018-06-19T15:53:00.344Z,47.41
2018-06-19T15:54:00.404Z,42.46
2018-06-19T15:55:53.407Z,40.05
2018-06-19T15:56:53.465Z,39.76
2018-06-19T15:58:46.474Z,36.96
2018-06-19T15:59:46.534Z,35.61
2018-06-19T16:01:39.537Z,35.90
2018-06-19T16:02:39.601Z,35.78
2018-06-19T16:04:32.604Z,34.36
2018-06-19T16:05:32.665Z,35.61
2018-06-19T16:07:25.694Z,37.35
2018-06-19T16:08:25.759Z,37.91
2018-06-19T16:10:18.752Z,39.66
2018-06-19T16:11:18.822Z,38.99
2018-06-19T16:13:11.832Z,41.60
2018-06-19T16:14:11.881Z,40.63
2018-06-19T16:16:04.879Z,41.20
2018-06-19T16:17:04.949Z,40.53
2018-06-19T16:18:57.948Z,42.77
2018-06-19T16:19:58.017Z,40.94
2018-06-19T16:21:51.012Z,41.81
2018-06-19T16:22:51.079Z,43.74
2018-06-19T16:24:44.088Z,43.06
2018-06-19T16:25:44.168Z,41.33
2018-06-19T16:27:37.211Z,42.39
2018-06-19T16:28:37.208Z,44.22
2018-06-19T16:30:30.213Z,43.24
2018-06-19T16:31:30.272Z,41.20
2018-06-19T16:33:23.277Z,38.79
2018-06-19T16:34:23.337Z,42.36
2018-06-19T16:36:16.339Z,39.86
2018-06-19T16:37:16.409Z,41.23
2018-06-19T16:39:09.409Z,40.34
2018-06-19T16:40:09.475Z,41.11
2018-06-19T16:42:02.466Z,40.82
2018-06-19T16:43:02.542Z,41.78
2018-06-19T16:44:55.550Z,43.43
2018-06-19T16:45:55.603Z,43.62
2018-06-19T16:47:48.603Z,38.89
2018-06-19T16:48:48.663Z,40.82
2018-06-19T16:50:41.670Z,42.27
2018-06-19T16:51:41.725Z,41.50
2018-06-19T16:53:34.745Z,41.98
2018-06-19T16:54:34.819Z,41.98
2018-06-19T16:56:27.811Z,41.78
2018-06-19T16:57:27.878Z,41.98
2018-06-19T16:59:20.881Z,40.82
2018-06-19T17:00:20.941Z,41.78
2018-06-19T17:02:13.938Z,41.78
2018-06-19T17:03:14.025Z,41.88
2018-06-19T17:05:07.005Z,40.82
2018-06-19T17:06:07.067Z,41.88
2018-06-19T17:08:00.064Z,44.20
2018-06-19T17:09:00.130Z,42.46
2018-06-19T17:10:53.149Z,42.08
2018-06-19T17:11:53.208Z,39.74
2018-06-19T17:13:46.234Z,42.18
2018-06-19T17:14:46.283Z,43.72
2018-06-19T17:16:39.784Z,43.62
2018-06-19T17:17:39.841Z,43.79
2018-06-19T17:19:32.847Z,43.50
2018-06-19T17:20:32.905Z,43.70
2018-06-19T17:22:25.905Z,43.79
2018-06-19T17:23:25.969Z,44.27
2018-06-19T17:25:18.986Z,40.61
2018-06-19T17:26:19.035Z,44.18
2018-06-19T17:28:12.033Z,41.38
2018-06-19T17:29:12.092Z,43.70
2018-06-19T17:31:05.099Z,42.35
2018-06-19T17:32:05.159Z,41.19
2018-06-19T17:33:58.161Z,41.96
2018-06-19T17:34:58.220Z,42.25
2018-06-19T17:36:51.236Z,43.60
2018-06-19T17:37:51.289Z,43.60
2018-06-19T17:39:44.287Z,43.89
2018-06-19T17:40:44.414Z,41.09
2018-06-19T17:42:37.361Z,43.67
2018-06-19T17:43:37.418Z,43.79
2018-06-19T17:45:30.428Z,40.30
2018-06-19T17:46:30.483Z,41.55
2018-06-19T17:48:23.487Z,43.58
2018-06-19T17:49:23.549Z,43.87
2018-06-19T17:51:16.568Z,42.42
2018-06-19T17:52:16.673Z,41.65
2018-06-19T17:54:09.622Z,42.13
2018-06-19T17:55:09.693Z,40.30
2018-06-19T17:57:02.699Z,41.94
2018-06-19T17:58:02.754Z,41.46
2018-06-19T17:59:55.780Z,40.97
2018-06-19T18:00:55.836Z,40.59
2018-06-19T18:02:48.848Z,42.32
2018-06-19T18:03:48.909Z,42.61
2018-06-19T18:05:41.928Z,41.67
2018-06-19T18:06:41.973Z,41.27
2018-06-19T18:08:34.984Z,40.20
2018-06-19T18:09:35.048Z,40.88
2018-06-19T18:11:28.075Z,41.75
2018-06-19T18:12:28.134Z,42.61
2018-06-19T18:14:21.133Z,43.60
2018-06-19T18:15:21.202Z,43.58
2018-06-19T18:17:14.201Z,40.22
2018-06-19T18:18:14.276Z,40.20
2018-06-19T18:20:07.252Z,41.84
2018-06-19T18:21:07.330Z,39.72
2018-06-19T18:23:00.347Z,40.49
2018-06-19T18:24:00.387Z,41.55
2018-06-19T18:25:53.392Z,41.46
2018-06-19T18:26:53.461Z,42.32
2018-06-19T18:28:46.468Z,41.77
2018-06-19T18:29:46.521Z,41.65
2018-06-19T18:31:39.528Z,42.32
2018-06-19T18:32:39.581Z,41.36
2018-06-19T18:34:32.587Z,41.55